Wetterdaten: Woche 25.05.09 - 31.05.09 (KW22)
Datum Zeit Temperatur Luftfeuchte Luftdruck Niederschlag Wind Richtung Sonnenschein Solar Taupunkt Windchill Windben
25.05.2009 00:00 19.7 C 83 % 1016.8 hPa 0.0 l/m 0.5 km/h (0 Bft) O 0.00 h 0 W/m 16.7 C 19.7 C 1.4 km/h (1 Bft)
25.05.2009 01:00 18.5 C 85 % 1016.5 hPa 0.0 l/m 0.4 km/h (0 Bft) O-SO 0.00 h 0 W/m 15.9 C 18.5 C 0.9 km/h (0 Bft)
25.05.2009 02:00 17.5 C 86 % 1016.2 hPa 0.0 l/m 0.5 km/h (0 Bft) O-SO 0.00 h 0 W/m 15.2 C 17.5 C 1.4 km/h (1 Bft)
25.05.2009 03:00 16.5 C 90 % 1016.0 hPa 0.0 l/m 1.5 km/h (1 Bft) O-SO 0.00 h 0 W/m 14.8 C 16.5 C 2.6 km/h (1 Bft)
25.05.2009 04:00 15.6 C 93 % 1015.9 hPa 0.0 l/m 0.5 km/h (0 Bft) O-SO 0.00 h 0 W/m 14.4 C 15.6 C 1.4 km/h (1 Bft)
25.05.2009 05:00 14.7 C 94 % 1016.0 hPa 0.0 l/m 0.7 km/h (0 Bft) O-SO 0.02 h 9 W/m 13.7 C 14.7 C 1.5 km/h (1 Bft)
25.05.2009 06:00 14.5 C 95 % 1016.2 hPa 0.0 l/m 1.2 km/h (1 Bft) O-SO 0.00 h 33 W/m 13.8 C 14.5 C 2.3 km/h (1 Bft)
25.05.2009 07:00 15.7 C 96 % 1016.2 hPa 0.0 l/m 0.0 km/h (0 Bft) N 0.75 h 163 W/m 15.0 C 15.7 C 0.1 km/h (0 Bft)
25.05.2009 08:00 19.0 C 85 % 1016.4 hPa 0.0 l/m 0.3 km/h (0 Bft) O 1.00 h 324 W/m 16.4 C 19.0 C 1.2 km/h (1 Bft)
25.05.2009 09:00 21.6 C 77 % 1016.5 hPa 0.0 l/m 0.7 km/h (0 Bft) O-SO 1.00 h 483 W/m 17.3 C 21.6 C 2.1 km/h (1 Bft)
25.05.2009 10:00 24.0 C 65 % 1016.3 hPa 0.0 l/m 2.4 km/h (1 Bft) SO 1.00 h 630 W/m 17.0 C 24.0 C 4.6 km/h (1 Bft)
25.05.2009 11:00 26.1 C 58 % 1015.9 hPa 0.0 l/m 2.0 km/h (1 Bft) SO 1.00 h 744 W/m 17.2 C 26.1 C 4.4 km/h (1 Bft)
25.05.2009 12:00 27.9 C 53 % 1015.5 hPa 0.0 l/m 2.7 km/h (1 Bft) O-SO 1.00 h 818 W/m 17.4 C 27.9 C 5.0 km/h (1 Bft)
25.05.2009 13:00 29.5 C 47 % 1015.0 hPa 0.0 l/m 2.6 km/h (1 Bft) O-SO 1.00 h 851 W/m 17.0 C 29.5 C 4.9 km/h (1 Bft)
25.05.2009 14:00 30.8 C 43 % 1014.1 hPa 0.0 l/m 1.9 km/h (1 Bft) O-SO 1.00 h 830 W/m 16.8 C 30.8 C 4.0 km/h (1 Bft)
25.05.2009 15:00 32.1 C 35 % 1013.3 hPa 0.0 l/m 2.0 km/h (1 Bft) W-NW 1.00 h 764 W/m 14.7 C 32.1 C 3.8 km/h (1 Bft)
25.05.2009 16:00 33.1 C 28 % 1012.4 hPa 0.0 l/m 2.5 km/h (1 Bft) W-NW 1.00 h 650 W/m 12.2 C 33.1 C 4.5 km/h (1 Bft)
25.05.2009 17:00 32.7 C 26 % 1011.9 hPa 0.0 l/m 1.9 km/h (1 Bft) N-NO 1.00 h 500 W/m 10.6 C 32.7 C 4.3 km/h (1 Bft)
25.05.2009 18:00 31.9 C 28 % 1011.3 hPa 0.0 l/m 3.0 km/h (1 Bft) O-SO 1.00 h 352 W/m 11.2 C 31.9 C 4.6 km/h (1 Bft)
25.05.2009 19:00 30.5 C 37 % 1011.1 hPa 0.0 l/m 0.9 km/h (0 Bft) O-SO 0.98 h 172 W/m 14.1 C 30.5 C 2.9 km/h (1 Bft)
25.05.2009 20:00 28.0 C 48 % 1011.0 hPa 0.0 l/m 0.4 km/h (0 Bft) NO 0.90 h 52 W/m 16.1 C 28.0 C 2.0 km/h (1 Bft)
25.05.2009 21:00 26.5 C 54 % 1010.9 hPa 0.0 l/m 0.3 km/h (0 Bft) N-NW 0.00 h 8 W/m 16.5 C 26.5 C 1.0 km/h (0 Bft)
25.05.2009 22:00 24.7 C 61 % 1011.0 hPa 0.0 l/m 0.4 km/h (0 Bft) O-NO 0.00 h 0 W/m 16.5 C 24.7 C 1.4 km/h (1 Bft)
25.05.2009 23:00 23.0 C 67 % 1010.8 hPa 0.0 l/m 0.5 km/h (0 Bft) O-NO 0.00 h 0 W/m 16.5 C 23.0 C 1.3 km/h (1 Bft)
26.05.2009 00:00 21.3 C 72 % 1010.8 hPa 0.0 l/m 0.9 km/h (0 Bft) O 0.00 h 0 W/m 16.2 C 21.3 C 1.8 km/h (1 Bft)
26.05.2009 01:00 20.0 C 77 % 1010.6 hPa 0.0 l/m 0.9 km/h (0 Bft) O 0.00 h 0 W/m 15.9 C 20.0 C 1.6 km/h (1 Bft)
26.05.2009 02:00 18.8 C 82 % 1010.5 hPa 0.0 l/m 1.6 km/h (1 Bft) O 0.00 h 0 W/m 15.5 C 18.8 C 2.7 km/h (1 Bft)
26.05.2009 03:00 17.7 C 85 % 1010.4 hPa 0.0 l/m 2.1 km/h (1 Bft) O-SO 0.00 h 0 W/m 15.2 C 17.7 C 3.1 km/h (1 Bft)
26.05.2009 04:00 17.3 C 88 % 1010.2 hPa 0.0 l/m 1.7 km/h (1 Bft) O 0.00 h 0 W/m 15.2 C 17.3 C 3.1 km/h (1 Bft)
26.05.2009 05:00 17.1 C 88 % 1011.0 hPa 0.0 l/m 3.8 km/h (1 Bft) O-SO 0.17 h 13 W/m 15.1 C 17.1 C 5.6 km/h (1 Bft)
26.05.2009 06:00 18.4 C 77 % 1011.5 hPa 0.0 l/m 5.8 km/h (2 Bft) W-NW 0.02 h 47 W/m 14.3 C 18.4 C 9.8 km/h (2 Bft)
26.05.2009 07:00 20.5 C 67 % 1011.9 hPa 0.0 l/m 3.1 km/h (1 Bft) W 0.00 h 60 W/m 14.2 C 20.5 C 6.2 km/h (2 Bft)
26.05.2009 08:00 20.7 C 73 % 1013.0 hPa 0.0 l/m 1.5 km/h (1 Bft) W 0.32 h 197 W/m 15.6 C 20.7 C 3.6 km/h (1 Bft)
26.05.2009 09:00 21.2 C 70 % 1013.2 hPa 0.0 l/m 2.3 km/h (1 Bft) W-NW 0.05 h 238 W/m 15.5 C 21.2 C 4.6 km/h (1 Bft)
26.05.2009 10:00 21.5 C 69 % 1013.3 hPa 0.0 l/m 2.6 km/h (1 Bft) W-NW 0.05 h 231 W/m 15.7 C 21.5 C 5.0 km/h (1 Bft)
26.05.2009 11:00 22.0 C 68 % 1013.0 hPa 0.0 l/m 7.6 km/h (2 Bft) W 0.58 h 445 W/m 15.7 C 22.0 C 12.3 km/h (3 Bft)
26.05.2009 12:00 23.4 C 64 % 1012.5 hPa 0.0 l/m 13.9 km/h (3 Bft) W 0.97 h 789 W/m 16.1 C 23.4 C 21.0 km/h (4 Bft)
26.05.2009 13:00 25.0 C 56 % 1012.1 hPa 0.0 l/m 12.2 km/h (2 Bft) W 1.00 h 820 W/m 15.5 C 25.0 C 19.8 km/h (3 Bft)
26.05.2009 14:00 23.1 C 60 % 1012.4 hPa 0.2 l/m 24.1 km/h (4 Bft) W 0.23 h 287 W/m 14.9 C 23.1 C 36.9 km/h (5 Bft)
26.05.2009 15:00 17.7 C 79 % 1014.3 hPa 2.6 l/m 18.5 km/h (3 Bft) W 0.00 h 6 W/m 13.9 C 17.7 C 29.0 km/h (5 Bft)
26.05.2009 16:00 15.3 C 93 % 1014.5 hPa 0.8 l/m 13.8 km/h (3 Bft) W 0.00 h 29 W/m 14.2 C 15.3 C 21.8 km/h (4 Bft)
26.05.2009 17:00 15.2 C 95 % 1015.4 hPa 0.6 l/m 5.1 km/h (1 Bft) W 0.00 h 39 W/m 14.4 C 15.2 C 9.6 km/h (2 Bft)
26.05.2009 18:00 15.0 C 96 % 1015.0 hPa 0.6 l/m 3.6 km/h (1 Bft) W 0.00 h 24 W/m 14.4 C 15.0 C 6.9 km/h (2 Bft)
26.05.2009 19:00 15.1 C 96 % 1015.8 hPa 0.8 l/m 1.2 km/h (1 Bft) W 0.00 h 10 W/m 14.5 C 15.1 C 3.7 km/h (1 Bft)
26.05.2009 20:00 14.7 C 96 % 1016.5 hPa 0.2 l/m 1.0 km/h (0 Bft) S 0.00 h 6 W/m 14.0 C 14.7 C 2.4 km/h (1 Bft)
26.05.2009 21:00 14.4 C 95 % 1017.4 hPa 0.0 l/m 2.5 km/h (1 Bft) S-SO 0.00 h 0 W/m 13.6 C 14.4 C 5.0 km/h (1 Bft)
26.05.2009 22:00 14.2 C 94 % 1018.0 hPa 0.4 l/m 5.3 km/h (1 Bft) S-SO 0.00 h 0 W/m 13.3 C 14.2 C 9.0 km/h (2 Bft)
26.05.2009 23:00 14.1 C 95 % 1018.8 hPa 5.6 l/m 2.6 km/h (1 Bft) S-SO 0.00 h 0 W/m 13.3 C 14.1 C 6.1 km/h (2 Bft)
27.05.2009 00:00 13.7 C 96 % 1019.7 hPa 4.8 l/m 2.8 km/h (1 Bft) W 0.00 h 0 W/m 13.1 C 13.7 C 4.9 km/h (1 Bft)
27.05.2009 01:00 13.0 C 96 % 1020.7 hPa 1.8 l/m 3.9 km/h (1 Bft) W-NW 0.00 h 0 W/m 12.4 C 13.0 C 7.0 km/h (2 Bft)
27.05.2009 02:00 12.5 C 97 % 1021.5 hPa 0.2 l/m 1.5 km/h (1 Bft) W 0.00 h 0 W/m 12.0 C 12.5 C 3.4 km/h (1 Bft)
27.05.2009 03:00 12.2 C 97 % 1022.7 hPa 0.0 l/m 3.9 km/h (1 Bft) W-NW 0.00 h 0 W/m 11.7 C 12.2 C 7.5 km/h (2 Bft)
27.05.2009 04:00 11.4 C 97 % 1023.7 hPa 0.0 l/m 7.2 km/h (2 Bft) W-NW 0.00 h 0 W/m 10.9 C 11.4 C 11.0 km/h (2 Bft)
27.05.2009 05:00 10.3 C 97 % 1024.5 hPa 0.0 l/m 2.6 km/h (1 Bft) W-NW 0.00 h 6 W/m 9.8 C 10.3 C 5.2 km/h (1 Bft)
27.05.2009 06:00 9.7 C 95 % 1025.4 hPa 0.0 l/m 1.8 km/h (1 Bft) O-NO 0.00 h 23 W/m 9.0 C 9.6 C 3.5 km/h (1 Bft)
27.05.2009 07:00 10.8 C 94 % 1026.2 hPa 0.0 l/m 0.3 km/h (0 Bft) O-SO 0.93 h 203 W/m 9.9 C 10.8 C 1.3 km/h (1 Bft)
27.05.2009 08:00 13.1 C 79 % 1026.6 hPa 0.0 l/m 2.2 km/h (1 Bft) O-SO 0.67 h 292 W/m 9.6 C 13.1 C 4.1 km/h (1 Bft)
27.05.2009 09:00 12.8 C 76 % 1027.3 hPa 0.0 l/m 1.3 km/h (1 Bft) O-SO 0.17 h 229 W/m 8.5 C 12.8 C 2.5 km/h (1 Bft)
27.05.2009 10:00 13.8 C 72 % 1027.2 hPa 0.0 l/m 3.0 km/h (1 Bft) SO 0.52 h 541 W/m 8.8 C 13.8 C 5.7 km/h (1 Bft)
27.05.2009 11:00 15.6 C 68 % 1027.1 hPa 0.0 l/m 4.4 km/h (1 Bft) SO 1.00 h 931 W/m 9.7 C 15.6 C 7.7 km/h (2 Bft)
27.05.2009 12:00 16.1 C 63 % 1026.8 hPa 0.0 l/m 3.7 km/h (1 Bft) SO 0.68 h 769 W/m 9.1 C 16.1 C 6.8 km/h (2 Bft)
27.05.2009 13:00 15.1 C 65 % 1026.7 hPa 0.0 l/m 1.7 km/h (1 Bft) SO 0.08 h 347 W/m 8.4 C 15.1 C 3.7 km/h (1 Bft)
27.05.2009 14:00 17.1 C 60 % 1026.3 hPa 0.0 l/m 2.4 km/h (1 Bft) SO 0.68 h 719 W/m 9.2 C 17.1 C 5.1 km/h (1 Bft)
27.05.2009 15:00 18.7 C 54 % 1025.9 hPa 0.0 l/m 3.8 km/h (1 Bft) W-SW 0.77 h 766 W/m 9.2 C 18.7 C 7.1 km/h (2 Bft)
27.05.2009 16:00 18.9 C 45 % 1025.9 hPa 0.0 l/m 7.3 km/h (2 Bft) W 0.88 h 631 W/m 6.7 C 18.9 C 11.8 km/h (2 Bft)
27.05.2009 17:00 18.5 C 43 % 1025.9 hPa 0.0 l/m 8.2 km/h (2 Bft) W 0.90 h 445 W/m 5.8 C 18.5 C 13.1 km/h (3 Bft)
27.05.2009 18:00 19.2 C 40 % 1025.7 hPa 0.0 l/m 6.4 km/h (2 Bft) W 0.97 h 370 W/m 5.3 C 19.2 C 10.3 km/h (2 Bft)
27.05.2009 19:00 19.0 C 39 % 1025.7 hPa 0.0 l/m 4.7 km/h (1 Bft) W 0.37 h 137 W/m 4.9 C 19.0 C 7.8 km/h (2 Bft)
27.05.2009 20:00 16.3 C 52 % 1025.9 hPa 0.0 l/m 1.9 km/h (1 Bft) W-NW 0.00 h 26 W/m 6.5 C 16.3 C 4.0 km/h (1 Bft)
27.05.2009 21:00 14.4 C 59 % 1026.3 hPa 0.0 l/m 6.7 km/h (2 Bft) W 0.00 h 5 W/m 6.5 C 14.4 C 10.4 km/h (2 Bft)
27.05.2009 22:00 13.8 C 59 % 1026.7 hPa 0.0 l/m 9.2 km/h (2 Bft) W 0.00 h 0 W/m 5.9 C 13.8 C 13.8 km/h (3 Bft)
27.05.2009 23:00 13.6 C 59 % 1027.0 hPa 0.0 l/m 9.2 km/h (2 Bft) W-NW 0.00 h 0 W/m 5.8 C 13.6 C 15.0 km/h (3 Bft)
28.05.2009 00:00 13.5 C 60 % 1027.2 hPa 0.0 l/m 10.0 km/h (2 Bft) W 0.00 h 0 W/m 6.0 C 13.5 C 15.1 km/h (3 Bft)
28.05.2009 01:00 13.2 C 64 % 1027.3 hPa 0.0 l/m 6.4 km/h (2 Bft) W 0.00 h 0 W/m 6.5 C 13.2 C 9.9 km/h (2 Bft)
28.05.2009 02:00 12.7 C 68 % 1027.7 hPa 0.0 l/m 1.8 km/h (1 Bft) N-NW 0.00 h 0 W/m 7.0 C 12.7 C 4.0 km/h (1 Bft)
28.05.2009 03:00 12.3 C 69 % 1027.4 hPa 0.0 l/m 4.2 km/h (1 Bft) W-NW 0.00 h 0 W/m 6.8 C 12.3 C 6.8 km/h (2 Bft)
28.05.2009 04:00 12.2 C 70 % 1027.3 hPa 0.0 l/m 0.6 km/h (0 Bft) NW 0.00 h 0 W/m 6.9 C 12.2 C 1.9 km/h (1 Bft)
28.05.2009 05:00 11.9 C 74 % 1027.2 hPa 0.0 l/m 0.0 km/h (0 Bft) N 0.00 h 7 W/m 7.5 C 11.9 C 0.3 km/h (0 Bft)
28.05.2009 06:00 11.8 C 76 % 1027.5 hPa 0.0 l/m 0.3 km/h (0 Bft) NW 0.00 h 30 W/m 7.8 C 11.8 C 1.4 km/h (1 Bft)
28.05.2009 07:00 12.5 C 76 % 1027.7 hPa 0.0 l/m 0.5 km/h (0 Bft) W 0.00 h 102 W/m 8.4 C 12.5 C 1.7 km/h (1 Bft)
28.05.2009 08:00 14.1 C 68 % 1027.9 hPa 0.0 l/m 6.2 km/h (2 Bft) W 0.43 h 244 W/m 8.2 C 14.1 C 10.2 km/h (2 Bft)
28.05.2009 09:00 14.9 C 66 % 1028.2 hPa 0.0 l/m 7.4 km/h (2 Bft) W 0.52 h 323 W/m 8.7 C 14.9 C 11.9 km/h (2 Bft)
28.05.2009 10:00 15.0 C 65 % 1028.4 hPa 0.0 l/m 10.7 km/h (2 Bft) W 0.00 h 279 W/m 8.6 C 15.0 C 17.8 km/h (3 Bft)
28.05.2009 11:00 16.8 C 63 % 1028.4 hPa 0.0 l/m 8.8 km/h (2 Bft) W 0.90 h 730 W/m 9.7 C 16.8 C 14.6 km/h (3 Bft)
28.05.2009 12:00 18.8 C 60 % 1028.3 hPa 0.0 l/m 8.8 km/h (2 Bft) W 1.00 h 927 W/m 10.9 C 18.8 C 14.8 km/h (3 Bft)
28.05.2009 13:00 19.3 C 60 % 1028.3 hPa 0.0 l/m 8.7 km/h (2 Bft) W 0.75 h 751 W/m 11.3 C 19.3 C 15.2 km/h (3 Bft)
28.05.2009 14:00 19.2 C 61 % 1028.0 hPa 0.0 l/m 7.3 km/h (2 Bft) W 0.57 h 500 W/m 11.5 C 19.2 C 12.6 km/h (3 Bft)
28.05.2009 15:00 18.3 C 62 % 1027.8 hPa 0.0 l/m 8.4 km/h (2 Bft) W 0.00 h 238 W/m 10.9 C 18.3 C 14.6 km/h (3 Bft)
28.05.2009 16:00 18.4 C 63 % 1027.7 hPa 0.0 l/m 8.3 km/h (2 Bft) W 0.00 h 207 W/m 11.3 C 18.4 C 14.0 km/h (3 Bft)
28.05.2009 17:00 18.3 C 64 % 1027.9 hPa 0.0 l/m 9.4 km/h (2 Bft) W 0.00 h 99 W/m 11.4 C 18.3 C 15.2 km/h (3 Bft)
28.05.2009 18:00 18.7 C 65 % 1027.9 hPa 0.0 l/m 9.4 km/h (2 Bft) W 0.52 h 224 W/m 11.9 C 18.7 C 15.0 km/h (3 Bft)
28.05.2009 19:00 19.6 C 63 % 1027.8 hPa 0.0 l/m 7.0 km/h (2 Bft) W 0.53 h 176 W/m 12.4 C 19.6 C 11.4 km/h (2 Bft)
28.05.2009 20:00 18.6 C 66 % 1028.1 hPa 0.0 l/m 4.6 km/h (1 Bft) W 0.20 h 47 W/m 12.1 C 18.6 C 7.6 km/h (2 Bft)
28.05.2009 21:00 17.3 C 71 % 1028.5 hPa 0.0 l/m 0.6 km/h (0 Bft) W-NW 0.02 h 8 W/m 11.9 C 17.3 C 1.2 km/h (1 Bft)
28.05.2009 22:00 15.5 C 78 % 1028.8 hPa 0.0 l/m 1.0 km/h (0 Bft) O 0.00 h 0 W/m 11.6 C 15.5 C 2.3 km/h (1 Bft)
28.05.2009 23:00 14.2 C 83 % 1029.0 hPa 0.0 l/m 2.1 km/h (1 Bft) O-SO 0.00 h 0 W/m 11.3 C 14.2 C 3.4 km/h (1 Bft)
29.05.2009 00:00 13.8 C 86 % 1028.9 hPa 0.0 l/m 0.0 km/h (0 Bft) N 0.00 h 0 W/m 11.6 C 13.8 C 0.3 km/h (0 Bft)
29.05.2009 01:00 13.7 C 88 % 1028.5 hPa 0.0 l/m 0.2 km/h (0 Bft) O 0.00 h 0 W/m 11.7 C 13.7 C 0.7 km/h (0 Bft)
29.05.2009 02:00 13.5 C 89 % 1028.1 hPa 0.0 l/m 0.2 km/h (0 Bft) O 0.00 h 0 W/m 11.7 C 13.5 C 0.6 km/h (0 Bft)
29.05.2009 03:00 13.3 C 88 % 1027.8 hPa 0.0 l/m 0.0 km/h (0 Bft) N 0.00 h 0 W/m 11.4 C 13.3 C 0.1 km/h (0 Bft)
29.05.2009 04:00 13.2 C 89 % 1027.4 hPa 0.4 l/m 0.3 km/h (0 Bft) O 0.00 h 0 W/m 11.4 C 13.2 C 0.7 km/h (0 Bft)
29.05.2009 05:00 13.1 C 90 % 1027.5 hPa 0.4 l/m 0.9 km/h (0 Bft) N-NW 0.00 h 0 W/m 11.6 C 13.1 C 2.3 km/h (1 Bft)
29.05.2009 06:00 12.8 C 93 % 1027.4 hPa 0.0 l/m 0.3 km/h (0 Bft) N-NW 0.00 h 13 W/m 11.6 C 12.8 C 0.6 km/h (0 Bft)
29.05.2009 07:00 13.1 C 94 % 1027.4 hPa 0.0 l/m 0.5 km/h (0 Bft) N-NO 0.00 h 60 W/m 12.2 C 13.1 C 1.7 km/h (1 Bft)
29.05.2009 08:00 14.4 C 91 % 1027.4 hPa 0.0 l/m 2.2 km/h (1 Bft) N 0.45 h 275 W/m 12.8 C 14.4 C 5.4 km/h (1 Bft)
29.05.2009 09:00 16.1 C 72 % 1027.4 hPa 0.0 l/m 5.1 km/h (1 Bft) N 0.83 h 528 W/m 11.0 C 16.1 C 10.8 km/h (2 Bft)
29.05.2009 10:00 17.3 C 65 % 1027.3 hPa 0.0 l/m 4.8 km/h (1 Bft) N 0.95 h 634 W/m 10.5 C 17.3 C 10.1 km/h (2 Bft)
29.05.2009 11:00 18.2 C 60 % 1026.8 hPa 0.0 l/m 7.1 km/h (2 Bft) N 0.87 h 733 W/m 10.2 C 18.2 C 13.4 km/h (3 Bft)
29.05.2009 12:00 19.2 C 51 % 1026.5 hPa 0.0 l/m 5.3 km/h (1 Bft) NO 0.93 h 866 W/m 8.8 C 19.2 C 10.8 km/h (2 Bft)
29.05.2009 13:00 19.9 C 45 % 1025.8 hPa 0.0 l/m 4.6 km/h (1 Bft) N 0.80 h 811 W/m 7.7 C 19.9 C 9.0 km/h (2 Bft)
29.05.2009 14:00 20.8 C 37 % 1025.3 hPa 0.0 l/m 6.3 km/h (2 Bft) N 0.98 h 866 W/m 5.5 C 20.8 C 12.1 km/h (2 Bft)
29.05.2009 15:00 21.0 C 31 % 1024.8 hPa 0.0 l/m 5.0 km/h (1 Bft) O-SO 1.00 h 795 W/m 3.1 C 21.0 C 10.2 km/h (2 Bft)
29.05.2009 16:00 20.5 C 28 % 1024.2 hPa 0.0 l/m 6.8 km/h (2 Bft) O-SO 1.00 h 680 W/m 1.4 C 20.5 C 12.5 km/h (3 Bft)
29.05.2009 17:00 20.3 C 27 % 1023.8 hPa 0.0 l/m 6.7 km/h (2 Bft) O-SO 1.00 h 535 W/m 0.7 C 20.3 C 11.7 km/h (2 Bft)
29.05.2009 18:00 19.9 C 25 % 1023.7 hPa 0.0 l/m 5.9 km/h (2 Bft) O-SO 1.00 h 371 W/m -0.9 C 19.9 C 11.5 km/h (2 Bft)
29.05.2009 19:00 19.0 C 28 % 1023.8 hPa 0.0 l/m 6.9 km/h (2 Bft) O-SO 1.00 h 203 W/m -0.1 C 19.0 C 13.8 km/h (3 Bft)
29.05.2009 20:00 17.2 C 35 % 1024.2 hPa 0.0 l/m 5.4 km/h (1 Bft) O-SO 0.67 h 60 W/m 1.8 C 17.2 C 11.4 km/h (2 Bft)
29.05.2009 21:00 15.6 C 40 % 1024.7 hPa 0.0 l/m 4.0 km/h (1 Bft) O 0.02 h 7 W/m 2.1 C 15.6 C 8.8 km/h (2 Bft)
29.05.2009 22:00 14.4 C 46 % 1024.8 hPa 0.0 l/m 3.1 km/h (1 Bft) O-NO 0.00 h 0 W/m 3.0 C 14.4 C 7.2 km/h (2 Bft)
29.05.2009 23:00 13.4 C 52 % 1024.8 hPa 0.0 l/m 2.5 km/h (1 Bft) O-SO 0.00 h 0 W/m 3.8 C 13.4 C 5.2 km/h (1 Bft)
30.05.2009 00:00 12.2 C 58 % 1024.5 hPa 0.0 l/m 1.7 km/h (1 Bft) O-SO 0.00 h 0 W/m 4.2 C 12.2 C 3.9 km/h (1 Bft)
30.05.2009 01:00 11.4 C 62 % 1023.9 hPa 0.0 l/m 3.1 km/h (1 Bft) N-NO 0.00 h 0 W/m 4.4 C 11.4 C 6.8 km/h (2 Bft)
30.05.2009 02:00 10.9 C 64 % 1023.3 hPa 0.0 l/m 4.5 km/h (1 Bft) NO 0.00 h 0 W/m 4.4 C 10.9 C 9.8 km/h (2 Bft)
30.05.2009 03:00 10.7 C 65 % 1022.5 hPa 0.0 l/m 5.7 km/h (1 Bft) N-NO 0.00 h 0 W/m 4.4 C 10.7 C 12.1 km/h (2 Bft)
30.05.2009 04:00 10.3 C 66 % 1021.9 hPa 0.0 l/m 4.7 km/h (1 Bft) N-NO 0.00 h 0 W/m 4.2 C 10.3 C 9.7 km/h (2 Bft)
30.05.2009 05:00 9.9 C 67 % 1021.6 hPa 0.0 l/m 5.0 km/h (1 Bft) N-NO 0.02 h 8 W/m 4.1 C 9.6 C 10.3 km/h (2 Bft)
30.05.2009 06:00 10.1 C 68 % 1021.5 hPa 0.0 l/m 3.6 km/h (1 Bft) N-NO 0.00 h 23 W/m 4.4 C 10.1 C 8.3 km/h (2 Bft)
30.05.2009 07:00 11.8 C 66 % 1021.1 hPa 0.0 l/m 2.8 km/h (1 Bft) O 0.98 h 205 W/m 5.7 C 11.8 C 6.8 km/h (2 Bft)
30.05.2009 08:00 14.6 C 58 % 1020.7 hPa 0.0 l/m 7.3 km/h (2 Bft) O 1.00 h 372 W/m 6.4 C 14.6 C 15.0 km/h (3 Bft)
30.05.2009 09:00 15.6 C 56 % 1019.9 hPa 0.0 l/m 8.6 km/h (2 Bft) N-NO 1.00 h 538 W/m 6.9 C 15.6 C 18.0 km/h (3 Bft)
30.05.2009 10:00 16.9 C 51 % 1019.5 hPa 0.0 l/m 9.2 km/h (2 Bft) O-SO 1.00 h 682 W/m 6.5 C 16.9 C 17.9 km/h (3 Bft)
30.05.2009 11:00 17.8 C 50 % 1019.3 hPa 0.0 l/m 10.3 km/h (2 Bft) O 1.00 h 790 W/m 7.2 C 17.8 C 20.8 km/h (4 Bft)
30.05.2009 12:00 19.4 C 47 % 1018.5 hPa 0.0 l/m 8.6 km/h (2 Bft) N-NO 1.00 h 862 W/m 7.8 C 19.4 C 18.4 km/h (3 Bft)
30.05.2009 13:00 20.3 C 44 % 1018.2 hPa 0.0 l/m 9.3 km/h (2 Bft) SO 1.00 h 884 W/m 7.6 C 20.3 C 18.4 km/h (3 Bft)
30.05.2009 14:00 20.4 C 41 % 1018.0 hPa 0.0 l/m 16.1 km/h (3 Bft) O-SO 1.00 h 859 W/m 6.8 C 20.4 C 25.8 km/h (4 Bft)
30.05.2009 15:00 20.8 C 43 % 1017.7 hPa 0.0 l/m 9.4 km/h (2 Bft) O-SO 0.82 h 728 W/m 7.9 C 20.8 C 17.7 km/h (3 Bft)
30.05.2009 16:00 20.7 C 45 % 1017.7 hPa 0.0 l/m 6.8 km/h (2 Bft) O-SO 0.75 h 582 W/m 8.2 C 20.7 C 14.4 km/h (3 Bft)
30.05.2009 17:00 20.6 C 44 % 1017.5 hPa 0.0 l/m 6.4 km/h (2 Bft) O 0.97 h 527 W/m 7.8 C 20.6 C 12.5 km/h (3 Bft)
30.05.2009 18:00 20.3 C 42 % 1017.4 hPa 0.0 l/m 7.6 km/h (2 Bft) O-SO 1.00 h 363 W/m 7.1 C 20.3 C 13.7 km/h (3 Bft)
30.05.2009 19:00 20.0 C 42 % 1017.1 hPa 0.0 l/m 4.6 km/h (1 Bft) O-SO 1.00 h 195 W/m 6.8 C 20.0 C 9.7 km/h (2 Bft)
30.05.2009 20:00 19.0 C 44 % 1017.3 hPa 0.0 l/m 2.5 km/h (1 Bft) O 0.72 h 62 W/m 6.3 C 19.0 C 5.9 km/h (2 Bft)
30.05.2009 21:00 17.4 C 49 % 1017.7 hPa 0.0 l/m 2.4 km/h (1 Bft) NO 0.03 h 7 W/m 6.5 C 17.4 C 5.6 km/h (1 Bft)
30.05.2009 22:00 16.0 C 55 % 1018.2 hPa 0.0 l/m 2.8 km/h (1 Bft) NO 0.00 h 0 W/m 6.9 C 16.0 C 6.8 km/h (2 Bft)
30.05.2009 23:00 15.0 C 60 % 1018.3 hPa 0.0 l/m 4.1 km/h (1 Bft) N-NO 0.00 h 0 W/m 7.2 C 15.0 C 8.3 km/h (2 Bft)
31.05.2009 00:00 13.9 C 64 % 1018.4 hPa 0.0 l/m 1.5 km/h (1 Bft) N-NO 0.00 h 0 W/m 7.3 C 13.9 C 3.8 km/h (1 Bft)
31.05.2009 01:00 12.9 C 69 % 1018.2 hPa 0.0 l/m 2.6 km/h (1 Bft) N-NO 0.00 h 0 W/m 7.4 C 12.9 C 5.8 km/h (2 Bft)
31.05.2009 02:00 12.1 C 72 % 1017.9 hPa 0.0 l/m 1.6 km/h (1 Bft) N-NO 0.00 h 0 W/m 7.3 C 12.1 C 3.8 km/h (1 Bft)
31.05.2009 03:00 11.5 C 75 % 1018.1 hPa 0.0 l/m 0.1 km/h (0 Bft) NO 0.00 h 0 W/m 7.2 C 11.5 C 0.7 km/h (0 Bft)
31.05.2009 04:00 10.5 C 80 % 1018.0 hPa 0.0 l/m 0.3 km/h (0 Bft) NO 0.00 h 0 W/m 7.2 C 10.5 C 1.1 km/h (0 Bft)
31.05.2009 05:00 9.6 C 84 % 1018.1 hPa 0.0 l/m 1.2 km/h (1 Bft) NO 0.00 h 6 W/m 7.1 C 9.6 C 2.5 km/h (1 Bft)
31.05.2009 06:00 9.3 C 85 % 1018.2 hPa 0.0 l/m 0.5 km/h (0 Bft) O 0.00 h 18 W/m 7.0 C 9.3 C 1.4 km/h (1 Bft)
31.05.2009 07:00 10.1 C 87 % 1018.5 hPa 0.0 l/m 1.2 km/h (1 Bft) N 0.52 h 151 W/m 8.0 C 10.1 C 2.7 km/h (1 Bft)
31.05.2009 08:00 13.9 C 73 % 1018.4 hPa 0.0 l/m 4.8 km/h (1 Bft) N-NO 0.93 h 313 W/m 9.2 C 13.9 C 9.5 km/h (2 Bft)
31.05.2009 09:00 15.2 C 71 % 1018.4 hPa 0.0 l/m 4.7 km/h (1 Bft) O-SO 0.83 h 464 W/m 9.9 C 15.2 C 9.0 km/h (2 Bft)
31.05.2009 10:00 15.6 C 68 % 1018.3 hPa 0.0 l/m 5.5 km/h (1 Bft) O-SO 0.38 h 414 W/m 9.7 C 15.6 C 10.7 km/h (2 Bft)
31.05.2009 11:00 16.9 C 62 % 1018.3 hPa 0.0 l/m 6.3 km/h (2 Bft) O-SO 0.38 h 568 W/m 9.6 C 16.9 C 11.4 km/h (2 Bft)
31.05.2009 12:00 17.7 C 57 % 1018.1 hPa 0.0 l/m 10.5 km/h (2 Bft) O-SO 0.58 h 668 W/m 9.1 C 17.7 C 18.2 km/h (3 Bft)
31.05.2009 13:00 18.9 C 53 % 1018.1 hPa 0.0 l/m 6.2 km/h (2 Bft) O 0.75 h 798 W/m 9.1 C 18.9 C 13.0 km/h (3 Bft)
31.05.2009 14:00 18.5 C 55 % 1017.9 hPa 0.0 l/m 5.4 km/h (1 Bft) O-SO 0.30 h 509 W/m 9.2 C 18.5 C 11.1 km/h (2 Bft)
31.05.2009 15:00 19.1 C 52 % 1017.7 hPa 0.0 l/m 7.7 km/h (2 Bft) O-SO 0.47 h 560 W/m 8.9 C 19.1 C 13.6 km/h (3 Bft)
31.05.2009 16:00 19.9 C 47 % 1017.2 hPa 0.0 l/m 5.0 km/h (1 Bft) O-SO 0.88 h 649 W/m 8.4 C 19.9 C 10.2 km/h (2 Bft)
31.05.2009 17:00 20.0 C 43 % 1016.9 hPa 0.0 l/m 7.0 km/h (2 Bft) N-NO 1.00 h 538 W/m 6.9 C 20.0 C 14.6 km/h (3 Bft)
31.05.2009 18:00 20.1 C 43 % 1016.8 hPa 0.0 l/m 5.5 km/h (1 Bft) O-SO 1.00 h 387 W/m 7.1 C 20.1 C 11.2 km/h (2 Bft)
31.05.2009 19:00 19.6 C 43 % 1016.8 hPa 0.0 l/m 4.5 km/h (1 Bft) O-SO 0.78 h 188 W/m 6.5 C 19.6 C 9.2 km/h (2 Bft)
31.05.2009 20:00 17.7 C 42 % 1017.2 hPa 0.0 l/m 3.8 km/h (1 Bft) N-NO 0.00 h 28 W/m 4.8 C 17.7 C 8.8 km/h (2 Bft)
31.05.2009 21:00 16.1 C 42 % 1017.6 hPa 0.0 l/m 2.5 km/h (1 Bft) O-NO 0.02 h 7 W/m 3.2 C 16.1 C 5.8 km/h (2 Bft)
31.05.2009 22:00 14.8 C 49 % 1018.2 hPa 0.0 l/m 0.9 km/h (0 Bft) O 0.00 h 0 W/m 4.2 C 14.8 C 2.5 km/h (1 Bft)
31.05.2009 23:00 13.6 C 54 % 1018.4 hPa 0.0 l/m 2.2 km/h (1 Bft) N-NO 0.00 h 0 W/m 4.5 C 13.6 C 5.2 km/h (1 Bft)
Min-Datum _ 31.05.09 25.05.09 26.05.09 - 25.05.09 - - - 29.05.09 30.05.09 25.05.09
_ Min-Zeit 07:00 17:44 04:15 - 00:00 - - - 18:30 05:52 00:02
Minimum _ 9.1 C 20 % 1010.1 hPa - 0.0 km/h (0 Bft) - - - -2.4 C 7.9 C 0.0 km/h (0 Bft)
Max-Datum _ 25.05.09 26.05.09 28.05.09 26.05.09 26.05.09 - 25.05.09 28.05.09 25.05.09 25.05.09 26.05.09
_ Max-Zeit 16:41 18:56 22:45 23:57 14:52 - 05:51 13:48 13:26 16:40 14:32
Maximum _ 33.4 C 97 % 1029.0 hPa 5.6 l/m 36.5 km/h
W (5 Bft)
- 0.02 h 1238 W/m 20.0 C 33.4 C 62.6 km/h
W (8 Bft)
Durchschnitt _ 17.2 C 65 % 1020.7 hPa #19.4 l/m 4.3 km/h (1 Bft) W #64:42 h 370 W/m 9.9 C 17.2 C 8.0 km/h (2 Bft)
© Kaiko 2009